Time;durP1;ratioP1;P1;durP2;ratioP2;P2;SDS_P1;SDS_P2;PMS_P1;PMS_P2;Temp;Humidity;BMP_temperature;BMP_pressure;BME280_temperature;BME280_humidity;BME280_pressure;Samples;Min_cycle;Max_cycle;Signal;HPM_P1;HPM_P2
2021/05/12 00:01:18;;;;;;;1999.90;999.90;;;;;;;13.77;59.58;95355.72;5072010;28;20304;-61
2021/05/12 00:03:45;;;;;;;1999.90;999.90;;;;;;;13.72;60.62;95353.28;5071854;28;20309;-61
2021/05/12 00:06:12;;;;;;;1999.90;999.90;;;;;;;13.69;60.46;95353.91;5071643;28;20663;-62
2021/05/12 00:08:39;;;;;;;1999.90;999.90;;;;;;;13.72;60.59;95352.50;5071639;28;20253;-59
2021/05/12 00:11:06;;;;;;;1999.90;999.90;;;;;;;13.59;60.94;95338.63;5071451;28;20232;-61
2021/05/12 00:13:33;;;;;;;1999.90;999.90;;;;;;;13.47;61.33;95346.34;5071919;28;20228;-60
2021/05/12 00:16:00;;;;;;;1999.90;999.90;;;;;;;13.45;61.71;95342.53;5071585;28;20556;-60
2021/05/12 00:18:33;;;;;;;1999.90;999.90;;;;;;;13.52;61.33;95338.34;5071316;28;20281;-61
2021/05/12 00:21:02;;;;;;;1999.90;999.90;;;;;;;13.46;61.41;95336.97;5071472;28;20271;-60
2021/05/12 00:23:40;;;;;;;1999.90;999.90;;;;;;;13.51;61.17;95336.03;5071266;28;20254;-61
2021/05/12 00:26:07;;;;;;;1999.90;999.90;;;;;;;13.38;61.58;95331.81;5071705;28;20192;-61
2021/05/12 00:28:34;;;;;;;1999.90;999.90;;;;;;;13.43;61.38;95324.56;5071340;28;20196;-60
2021/05/12 00:31:01;;;;;;;1999.90;999.90;;;;;;;13.47;61.14;95319.47;5071436;28;20228;-61
2021/05/12 00:33:29;;;;;;;1999.90;999.90;;;;;;;13.30;61.92;95321.06;5071030;28;20626;-64
2021/05/12 00:35:56;;;;;;;1999.90;999.90;;;;;;;13.39;61.44;95321.06;5071425;28;20231;-60
2021/05/12 00:38:23;;;;;;;1999.90;999.90;;;;;;;13.36;61.50;95313.84;5071116;28;20228;-62
2021/05/12 00:40:49;;;;;;;1999.90;999.90;;;;;;;13.30;61.65;95309.88;5071073;28;20250;-63
2021/05/12 00:43:16;;;;;;;1999.90;999.90;;;;;;;13.39;61.46;95309.84;5070963;28;20207;-61
2021/05/12 00:45:43;;;;;;;1999.90;999.90;;;;;;;13.29;61.20;95313.56;5070898;28;20196;-61
2021/05/12 00:48:10;;;;;;;1999.90;999.90;;;;;;;13.37;61.42;95310.16;5070751;28;20257;-60
2021/05/12 00:50:38;;;;;;;1999.90;999.90;;;;;;;13.33;61.74;95311.88;5070972;28;20192;-60
2021/05/12 00:53:05;;;;;;;1999.90;999.90;;;;;;;13.30;61.69;95304.66;5070550;28;20205;-62
2021/05/12 00:55:32;;;;;;;1999.90;999.90;;;;;;;13.24;61.72;95305.94;5070949;28;21240;-60
2021/05/12 00:57:59;;;;;;;1999.90;999.90;;;;;;;13.25;61.66;95302.97;5070904;28;20257;-61
2021/05/12 01:00:28;;;;;;;1999.90;999.90;;;;;;;13.17;62.02;95295.97;5070591;28;20220;-62
2021/05/12 01:02:55;;;;;;;1999.90;999.90;;;;;;;13.17;61.72;95285.53;5070473;28;20196;-60
2021/05/12 01:05:29;;;;;;;1999.90;999.90;;;;;;;13.22;61.90;95298.41;5070494;28;20228;-62
2021/05/12 01:07:57;;;;;;;1999.90;999.90;;;;;;;13.15;62.13;95292.16;5070513;28;20197;-60
2021/05/12 01:10:24;;;;;;;1999.90;999.90;;;;;;;13.09;62.66;95286.31;5070018;28;20743;-60
2021/05/12 01:12:51;;;;;;;1999.90;999.90;;;;;;;13.09;62.59;95288.94;5070401;28;20193;-60
2021/05/12 01:15:18;;;;;;;1999.90;999.90;;;;;;;12.93;63.01;95285.31;5070913;28;20702;-60
2021/05/12 01:17:45;;;;;;;1999.90;999.90;;;;;;;12.93;63.11;95285.31;5070560;28;20299;-59
2021/05/12 01:20:14;;;;;;;1999.90;999.90;;;;;;;12.86;63.66;95285.78;5070254;28;20287;-61
2021/05/12 01:22:42;;;;;;;1999.90;999.90;;;;;;;12.85;63.53;95283.50;5070366;28;20219;-60
2021/05/12 01:25:10;;;;;;;1999.90;999.90;;;;;;;12.90;63.27;95276.25;5070329;28;20228;-60
2021/05/12 01:27:38;;;;;;;1999.90;999.90;;;;;;;12.97;63.01;95280.22;5070251;28;20697;-61
2021/05/12 01:30:07;;;;;;;1999.90;999.90;;;;;;;12.88;63.19;95281.03;5070509;28;20200;-61
2021/05/12 01:32:35;;;;;;;1999.90;999.90;;;;;;;12.75;63.78;95274.16;5070444;28;20200;-60
2021/05/12 01:35:07;;;;;;;1999.90;999.90;;;;;;;12.87;63.25;95278.72;5070118;28;20656;-61
2021/05/12 01:37:35;;;;;;;1999.90;999.90;;;;;;;12.81;63.25;95275.50;5070278;28;20196;-60
2021/05/12 01:40:04;;;;;;;1999.90;999.90;;;;;;;12.80;63.09;95276.59;5070017;28;20606;-60
2021/05/12 01:42:30;;;;;;;1999.90;999.90;;;;;;;12.66;63.63;95267.44;5070192;28;20208;-60
2021/05/12 01:45:05;;;;;;;1999.90;999.90;;;;;;;12.68;63.44;95267.91;5070345;28;20199;-59
2021/05/12 01:47:32;;;;;;;1999.90;999.90;;;;;;;12.71;63.29;95269.88;5070159;28;20232;-60
2021/05/12 01:50:04;;;;;;;1999.90;999.90;;;;;;;12.67;63.75;95261.91;5069949;28;20201;-62
2021/05/12 01:52:37;;;;;;;1999.90;999.90;;;;;;;12.65;63.53;95258.84;5070216;28;20235;-61
2021/05/12 01:55:07;;;;;;;1999.90;999.90;;;;;;;12.63;63.66;95247.97;5070372;28;20192;-62
2021/05/12 01:57:33;;;;;;;1999.90;999.90;;;;;;;12.60;63.82;95247.84;5070120;28;20193;-61
2021/05/12 02:00:00;;;;;;;1999.90;999.90;;;;;;;12.57;63.87;95245.84;5069775;28;20188;-62
2021/05/12 02:02:27;;;;;;;1999.90;999.90;;;;;;;12.61;63.46;95246.75;5071745;28;20207;-59
2021/05/12 02:04:54;;;;;;;1999.90;999.90;;;;;;;12.56;63.71;95242.47;5074425;28;20668;-59
2021/05/12 02:07:21;;;;;;;1999.90;999.90;;;;;;;12.49;63.69;95252.63;5074041;28;20224;-60
2021/05/12 02:09:52;;;;;;;1999.90;999.90;;;;;;;12.48;63.72;95248.47;5074037;28;20258;-61
2021/05/12 02:12:20;;;;;;;1999.90;999.90;;;;;;;12.46;63.53;95246.16;5073995;28;20189;-61
2021/05/12 02:14:47;;;;;;;1999.90;999.90;;;;;;;12.48;63.50;95248.47;5073725;28;20250;-61
2021/05/12 02:17:13;;;;;;;1999.90;999.90;;;;;;;12.42;63.86;95247.09;5073593;28;20314;-61
2021/05/12 02:19:40;;;;;;;1999.90;999.90;;;;;;;12.47;63.98;95252.91;5073895;28;20220;-61
2021/05/12 02:22:07;;;;;;;1999.90;999.90;;;;;;;12.44;64.28;95245.72;5073987;28;20207;-61
2021/05/12 02:24:37;;;;;;;1999.90;999.90;;;;;;;12.42;64.52;95244.50;5073524;28;20188;-61
2021/05/12 02:27:04;;;;;;;1999.90;999.90;;;;;;;12.36;64.91;95236.06;5073632;28;20192;-62
2021/05/12 02:29:32;;;;;;;1999.90;999.90;;;;;;;12.34;64.82;95238.25;5073578;28;20224;-61
2021/05/12 02:31:59;;;;;;;1999.90;999.90;;;;;;;12.35;64.58;95233.81;5073748;28;20605;-61
2021/05/12 02:34:25;;;;;;;1999.90;999.90;;;;;;;12.34;65.14;95237.47;5073361;28;20203;-62
2021/05/12 02:36:52;;;;;;;1999.90;999.90;;;;;;;12.37;65.10;95237.59;5073132;28;20234;-61
2021/05/12 02:39:19;;;;;;;1999.90;999.90;;;;;;;12.34;64.90;95237.47;5073390;28;20271;-61
2021/05/12 02:41:46;;;;;;;1999.90;999.90;;;;;;;12.29;65.65;95242.84;5073477;28;20554;-61
2021/05/12 02:44:13;;;;;;;1999.90;999.90;;;;;;;12.00;67.23;95241.63;5073309;28;20192;-60
2021/05/12 02:46:40;;;;;;;1999.90;999.90;;;;;;;11.75;67.28;95236.47;5073265;28;20212;-60
2021/05/12 02:49:07;;;;;;;1999.90;999.90;;;;;;;11.59;67.94;95238.72;5072989;28;20754;-60
2021/05/12 02:51:37;;;;;;;1999.90;999.90;;;;;;;11.48;68.61;95235.66;5073483;28;20208;-62
2021/05/12 02:54:04;;;;;;;1999.90;999.90;;;;;;;11.17;70.40;95230.53;5073201;28;20253;-61
2021/05/12 02:56:31;;;;;;;1999.90;999.90;;;;;;;11.22;69.87;95232.22;5073251;28;20270;-60
2021/05/12 02:59:01;;;;;;;1999.90;999.90;;;;;;;11.28;69.55;95238.81;5072983;28;20246;-61
2021/05/12 03:01:27;;;;;;;1999.90;999.90;;;;;;;11.29;70.02;95237.75;5072768;28;20264;-61
2021/05/12 03:03:55;;;;;;;1999.90;999.90;;;;;;;11.28;70.71;95235.44;5073157;28;20219;-61
2021/05/12 03:06:22;;;;;;;1999.90;999.90;;;;;;;11.23;70.46;95236.38;5073098;28;20287;-60
2021/05/12 03:08:49;;;;;;;1999.90;999.90;;;;;;;10.96;72.37;95234.00;5072734;28;20201;-61
2021/05/12 03:11:15;;;;;;;1999.90;999.90;;;;;;;10.94;72.43;95236.13;5072437;28;20228;-61
2021/05/12 03:13:42;;;;;;;1999.90;999.90;;;;;;;10.85;72.88;95246.50;5072637;28;20254;-61
2021/05/12 03:16:09;;;;;;;1999.90;999.90;;;;;;;10.98;71.84;95237.06;5072294;28;20605;-61
2021/05/12 03:18:36;;;;;;;1999.90;999.90;;;;;;;11.00;71.86;95238.31;5072824;28;20330;-61
2021/05/12 03:21:04;;;;;;;1999.90;999.90;;;;;;;11.10;71.78;95238.03;5072922;28;20201;-60
2021/05/12 03:23:31;;;;;;;1999.90;999.90;;;;;;;10.97;72.49;95244.09;5074037;28;20258;-60
2021/05/12 03:25:58;;;;;;;1999.90;999.90;;;;;;;11.06;72.40;95238.91;5074604;28;20303;-61
2021/05/12 03:28:25;;;;;;;1999.90;999.90;;;;;;;11.13;72.65;95236.66;5073970;28;20193;-61
2021/05/12 03:30:52;;;;;;;1999.90;999.90;;;;;;;11.18;71.98;95229.47;5073151;28;20200;-60
2021/05/12 03:33:19;;;;;;;1999.90;999.90;;;;;;;11.28;71.73;95230.25;5073620;28;20257;-60
2021/05/12 03:35:46;;;;;;;1999.90;999.90;;;;;;;11.34;71.81;95226.44;5076169;28;20297;-59
2021/05/12 03:38:14;;;;;;;1999.90;999.90;;;;;;;11.39;71.33;95226.28;5075198;28;20253;-60
2021/05/12 03:40:41;;;;;;;1999.90;999.90;;;;;;;11.48;71.48;95227.06;5072612;28;20188;-61
2021/05/12 03:43:09;;;;;;;1999.90;999.90;;;;;;;11.53;71.08;95221.72;5071472;28;20434;-60
2021/05/12 03:45:37;;;;;;;1999.90;999.90;;;;;;;11.68;70.79;95218.66;5073410;28;20189;-61
2021/05/12 03:48:06;;;;;;;1999.90;999.90;;;;;;;11.68;70.05;95221.25;5074896;28;20232;-63
2021/05/12 03:50:32;;;;;;;1999.90;999.90;;;;;;;11.70;70.71;95226.94;5073236;28;20232;-60
2021/05/12 03:52:59;;;;;;;1999.90;999.90;;;;;;;11.75;70.70;95224.22;5074220;28;20193;-59
2021/05/12 03:55:30;;;;;;;1999.90;999.90;;;;;;;11.85;70.08;95226.50;5073500;28;20197;-61
2021/05/12 03:57:56;;;;;;;1999.90;999.90;;;;;;;12.00;69.22;95228.63;5073240;28;20294;-62
2021/05/12 04:00:24;;;;;;;1999.90;999.90;;;;;;;12.05;69.59;95228.47;5072949;28;20196;-62
2021/05/12 04:02:51;;;;;;;1999.90;999.90;;;;;;;12.06;69.34;95232.59;5072500;28;20213;-62
2021/05/12 04:05:18;;;;;;;1999.90;999.90;;;;;;;12.22;69.75;95237.34;5072359;28;20197;-64
2021/05/12 04:07:45;;;;;;;1999.90;999.90;;;;;;;12.29;68.93;95227.97;5071100;28;20254;-61
2021/05/12 04:10:12;;;;;;;1999.90;999.90;;;;;;;12.27;69.83;95226.75;5073310;28;20225;-61
2021/05/12 04:12:40;;;;;;;1999.90;999.90;;;;;;;12.16;70.93;95225.53;5072376;28;20198;-63
2021/05/12 04:15:09;;;;;;;1999.90;999.90;;;;;;;12.27;70.63;95222.31;5072684;28;20432;-61
2021/05/12 04:17:36;;;;;;;1999.90;999.90;;;;;;;12.31;70.85;95222.44;5071991;28;20718;-62
2021/05/12 04:20:05;;;;;;;1999.90;999.90;;;;;;;12.43;70.67;95209.56;5072282;28;20210;-61
2021/05/12 04:22:31;;;;;;;1999.90;999.90;;;;;;;12.47;70.54;95213.06;5072740;28;20196;-61
2021/05/12 04:24:58;;;;;;;1999.90;999.90;;;;;;;12.73;69.81;95210.38;5073212;28;20223;-61
2021/05/12 04:27:25;;;;;;;1999.90;999.90;;;;;;;13.19;67.88;95205.09;5072856;28;20200;-61
2021/05/12 04:29:53;;;;;;;1999.90;999.90;;;;;;;13.69;64.75;95202.47;5071247;28;20763;-62
2021/05/12 04:32:20;;;;;;;1999.90;999.90;;;;;;;13.82;64.73;95192.06;5070924;28;20199;-61
2021/05/12 04:34:48;;;;;;;1999.90;999.90;;;;;;;13.69;64.71;95191.25;5070892;28;20275;-61
2021/05/12 04:37:15;;;;;;;1999.90;999.90;;;;;;;13.57;65.02;95193.78;5070851;28;20315;-63
2021/05/12 04:39:42;;;;;;;1999.90;999.90;;;;;;;13.82;63.96;95184.22;5071239;28;20204;-60
2021/05/12 04:42:09;;;;;;;1999.90;999.90;;;;;;;14.22;63.54;95187.84;5071260;28;20193;-61
2021/05/12 04:44:36;;;;;;;1999.90;999.90;;;;;;;14.52;60.36;95183.22;5070912;28;20732;-60
2021/05/12 04:47:04;;;;;;;1999.90;999.90;;;;;;;14.84;58.98;95186.88;5070816;28;20225;-59
2021/05/12 04:49:31;;;;;;;1999.90;999.90;;;;;;;14.88;58.26;95185.13;5070892;28;20254;-60
2021/05/12 04:51:58;;;;;;;1999.90;999.90;;;;;;;15.15;57.69;95186.28;5070705;28;20197;-60
2021/05/12 04:54:24;;;;;;;1999.90;999.90;;;;;;;15.43;57.66;95182.66;5070917;28;20189;-59
2021/05/12 04:56:51;;;;;;;1999.90;999.90;;;;;;;15.77;55.83;95185.84;5070634;28;20289;-60
2021/05/12 04:59:18;;;;;;;1999.90;999.90;;;;;;;15.79;55.52;95183.66;5070539;28;20273;-60
2021/05/12 05:01:45;;;;;;;1999.90;999.90;;;;;;;15.99;55.17;95182.69;5070718;28;20205;-63
2021/05/12 05:04:16;;;;;;;1999.90;999.90;;;;;;;16.27;54.71;95193.16;5070413;28;20200;-59
2021/05/12 05:06:42;;;;;;;1999.90;999.90;;;;;;;16.37;52.82;95184.81;5071072;28;20235;-59
2021/05/12 05:09:10;;;;;;;1999.90;999.90;;;;;;;16.49;52.05;95173.47;5070645;28;20197;-62
2021/05/12 05:11:36;;;;;;;1999.90;999.90;;;;;;;16.53;51.56;95167.22;5070402;28;20670;-59
2021/05/12 05:14:07;;;;;;;1999.90;999.90;;;;;;;16.69;52.33;95157.50;5070632;28;20219;-61
2021/05/12 05:16:34;;;;;;;1999.90;999.90;;;;;;;16.77;52.25;95148.69;5070432;28;20277;-61
2021/05/12 05:19:01;;;;;;;1999.90;999.90;;;;;;;16.92;52.51;95152.41;5070142;28;20303;-61
2021/05/12 05:21:29;;;;;;;1999.90;999.90;;;;;;;17.17;50.83;95145.06;5070346;28;20291;-62
2021/05/12 05:23:56;;;;;;;1999.90;999.90;;;;;;;17.03;52.02;95142.91;5070284;28;20188;-62
2021/05/12 05:26:22;;;;;;;1999.90;999.90;;;;;;;17.16;50.89;95143.53;5070413;28;20276;-61
2021/05/12 05:28:50;;;;;;;1999.90;999.90;;;;;;;17.17;51.43;95140.56;5070329;28;20633;-64
2021/05/12 05:31:17;;;;;;;1999.90;999.90;;;;;;;17.21;50.83;95136.16;5070226;28;20313;-63
2021/05/12 05:33:43;;;;;;;1999.90;999.90;;;;;;;17.27;49.67;95149.03;5070106;28;20235;-61
2021/05/12 05:36:10;;;;;;;1999.90;999.90;;;;;;;17.40;50.19;95148.53;5070050;28;20232;-62
2021/05/12 05:38:38;;;;;;;1999.90;999.90;;;;;;;17.40;50.27;95138.03;5070391;28;20212;-61
2021/05/12 05:41:05;;;;;;;1999.90;999.90;;;;;;;17.37;49.36;95143.22;5069289;28;20197;-61
2021/05/12 05:43:33;;;;;;;1999.90;999.90;;;;;;;16.93;48.59;95138.19;5070145;28;20189;-63
2021/05/12 05:46:00;;;;;;;1999.90;999.90;;;;;;;16.63;50.18;95132.63;5070143;28;20208;-62
2021/05/12 05:48:27;;;;;;;1999.90;999.90;;;;;;;16.72;50.21;95116.72;5069955;28;20301;-61
2021/05/12 05:50:53;;;;;;;1999.90;999.90;;;;;;;17.00;50.94;95125.19;5070067;28;20207;-62
2021/05/12 05:53:21;;;;;;;1999.90;999.90;;;;;;;16.90;51.17;95119.72;5069836;28;20200;-61
2021/05/12 05:55:49;;;;;;;1999.90;999.90;;;;;;;17.09;50.01;95119.75;5070088;28;20236;-61
2021/05/12 05:58:16;;;;;;;1999.90;999.90;;;;;;;17.23;48.90;95112.19;5069947;28;20189;-61
2021/05/12 06:00:44;;;;;;;1999.90;999.90;;;;;;;17.40;50.13;95119.66;5069981;28;20667;-60
2021/05/12 06:03:11;;;;;;;1999.90;999.90;;;;;;;17.65;49.84;95120.16;5069801;28;20288;-60
2021/05/12 06:05:37;;;;;;;1999.90;999.90;;;;;;;17.68;49.04;95122.13;5069788;28;20193;-61
2021/05/12 06:08:05;;;;;;;1999.90;999.90;;;;;;;17.97;48.53;95121.53;5070050;28;20290;-62
2021/05/12 06:10:32;;;;;;;1999.90;999.90;;;;;;;18.15;46.58;95118.41;5069647;28;20232;-60
2021/05/12 06:12:59;;;;;;;1999.90;999.90;;;;;;;18.16;46.76;95109.44;5069921;28;20205;-63
2021/05/12 06:15:26;;;;;;;1999.90;999.90;;;;;;;18.18;48.08;95094.81;5069700;28;20549;-60
2021/05/12 06:17:53;;;;;;;1999.90;999.90;;;;;;;18.47;48.11;95096.81;5069940;28;20236;-61
2021/05/12 06:20:20;;;;;;;1999.90;999.90;;;;;;;18.44;48.11;95086.19;5069894;28;20722;-61
2021/05/12 06:22:47;;;;;;;1999.90;999.90;;;;;;;18.48;46.13;95084.38;5069588;28;20200;-61
2021/05/12 06:25:13;;;;;;;1999.90;999.90;;;;;;;18.59;47.38;95082.69;5070021;28;20200;-61
2021/05/12 06:27:41;;;;;;;1999.90;999.90;;;;;;;18.73;47.24;95090.81;5069945;28;20285;-60
2021/05/12 06:30:10;;;;;;;1999.90;999.90;;;;;;;18.81;48.09;95083.78;5069562;28;20203;-60
2021/05/12 06:32:37;;;;;;;1999.90;999.90;;;;;;;19.12;46.84;95083.44;5069911;28;20250;-61
2021/05/12 06:35:05;;;;;;;1999.90;999.90;;;;;;;19.28;45.18;95083.25;5069737;28;20664;-60
2021/05/12 06:37:32;;;;;;;1999.90;999.90;;;;;;;19.27;43.46;95068.56;5069744;28;20224;-60
2021/05/12 06:39:59;;;;;;;1999.90;999.90;;;;;;;19.39;45.80;95059.66;5069432;28;20211;-63
2021/05/12 06:42:25;;;;;;;1999.90;999.90;;;;;;;19.54;44.87;95070.03;5069491;28;20199;-60
2021/05/12 06:44:52;;;;;;;1999.90;999.90;;;;;;;19.75;44.73;95070.25;5069769;28;20193;-61
2021/05/12 06:47:20;;;;;;;1999.90;999.90;;;;;;;19.48;44.44;95075.97;5069630;28;20232;-61
2021/05/12 06:49:47;;;;;;;1999.90;999.90;;;;;;;19.70;42.19;95073.22;5069799;28;20212;-61
2021/05/12 06:52:14;;;;;;;1999.90;999.90;;;;;;;19.67;42.98;95063.41;5071743;28;20196;-60
2021/05/12 06:54:41;;;;;;;1999.90;999.90;;;;;;;20.02;43.70;95073.53;5073048;28;20200;-61
2021/05/12 06:57:07;;;;;;;1999.90;999.90;;;;;;;20.11;42.45;95066.09;5072781;28;20645;-62
2021/05/12 06:59:34;;;;;;;1999.90;999.90;;;;;;;19.73;43.49;95067.22;5072838;28;20236;-60
2021/05/12 07:02:01;;;;;;;1999.90;999.90;;;;;;;19.78;42.06;95069.53;5073155;28;20674;-61
2021/05/12 07:04:29;;;;;;;1999.90;999.90;;;;;;;20.21;44.08;95069.94;5072974;28;20196;-60
2021/05/12 07:06:56;;;;;;;1999.90;999.90;;;;;;;20.36;41.96;95070.84;5072887;28;20196;-61
2021/05/12 07:09:23;;;;;;;1999.90;999.90;;;;;;;20.53;42.55;95065.66;5072695;28;20242;-61
2021/05/12 07:11:50;;;;;;;1999.90;999.90;;;;;;;20.68;40.61;95063.13;5072968;28;20193;-60
2021/05/12 07:14:16;;;;;;;1999.90;999.90;;;;;;;20.77;42.75;95058.28;5072884;28;20189;-62
2021/05/12 07:16:43;;;;;;;1999.90;999.90;;;;;;;20.84;40.46;95059.06;5072571;28;20228;-61
2021/05/12 07:19:10;;;;;;;1999.90;999.90;;;;;;;20.48;39.77;95044.13;5072518;28;20213;-62
2021/05/12 07:21:38;;;;;;;1999.90;999.90;;;;;;;20.43;41.69;95053.16;5072813;28;20197;-62
2021/05/12 07:24:05;;;;;;;1999.90;999.90;;;;;;;20.67;40.77;95051.06;5072622;28;20283;-65
2021/05/12 07:26:32;;;;;;;1999.90;999.90;;;;;;;20.59;44.18;95058.94;5072550;28;20200;-63
2021/05/12 07:28:59;;;;;;;1999.90;999.90;;;;;;;20.53;44.40;95060.38;5072735;28;20204;-63
2021/05/12 07:31:27;;;;;;;1999.90;999.90;;;;;;;20.67;43.25;95053.69;5072498;28;20200;-63
2021/05/12 07:33:53;;;;;;;1999.90;999.90;;;;;;;20.46;42.83;95039.22;5072485;28;20232;-63
2021/05/12 07:36:20;;;;;;;1999.90;999.90;;;;;;;21.04;41.39;95039.19;5072067;28;20289;-63
2021/05/12 07:38:48;;;;;;;1999.90;999.90;;;;;;;20.84;41.97;95027.38;5072196;28;20279;-61
2021/05/12 07:41:15;;;;;;;1999.90;999.90;;;;;;;21.04;40.91;95017.28;5072226;28;20254;-62
2021/05/12 07:43:43;;;;;;;1999.90;999.90;;;;;;;21.22;39.81;95015.47;5072052;28;20192;-64
2021/05/12 07:46:10;;;;;;;1999.90;999.90;;;;;;;21.36;40.84;95017.44;5072182;28;20197;-63
2021/05/12 07:48:37;;;;;;;1999.90;999.90;;;;;;;21.07;40.79;95019.16;5072130;28;20275;-62
2021/05/12 07:51:04;;;;;;;1999.90;999.90;;;;;;;20.86;42.49;95013.81;5072018;28;20616;-62
2021/05/12 07:53:32;;;;;;;1999.90;999.90;;;;;;;21.18;42.33;95009.44;5072098;28;20239;-63
2021/05/12 07:56:00;;;;;;;1999.90;999.90;;;;;;;21.61;40.37;95005.03;5072059;28;20298;-65
2021/05/12 07:58:26;;;;;;;1999.90;999.90;;;;;;;21.90;40.46;95005.81;5072026;28;20204;-63
2021/05/12 08:00:54;;;;;;;1999.90;999.90;;;;;;;22.25;40.27;95005.84;5071871;28;20207;-64
2021/05/12 08:03:21;;;;;;;1999.90;999.90;;;;;;;22.33;39.87;95002.06;5070732;28;20283;-64
2021/05/12 08:05:49;;;;;;;1999.90;999.90;;;;;;;22.02;39.00;94994.88;5071696;28;20592;-62
2021/05/12 08:08:17;;;;;;;1999.90;999.90;;;;;;;22.10;38.55;94996.41;5071759;28;20200;-62
2021/05/12 08:10:43;;;;;;;1999.90;999.90;;;;;;;22.36;36.32;94997.91;5071572;28;20235;-63
2021/05/12 08:13:11;;;;;;;1999.90;999.90;;;;;;;22.09;36.00;94994.88;5071527;28;20624;-63
2021/05/12 08:15:38;;;;;;;1999.90;999.90;;;;;;;22.06;37.52;94987.72;5071461;28;20671;-63
2021/05/12 08:18:05;;;;;;;1999.90;999.90;;;;;;;22.10;37.83;94983.16;5071266;28;20232;-63
2021/05/12 08:20:31;;;;;;;1999.90;999.90;;;;;;;22.53;38.80;94991.81;5071438;28;20189;-64
2021/05/12 08:22:58;;;;;;;1999.90;999.90;;;;;;;22.92;35.82;94983.78;5071401;28;20207;-63
2021/05/12 08:25:25;;;;;;;1999.90;999.90;;;;;;;23.11;36.50;94985.22;5071342;28;20239;-63
2021/05/12 08:27:53;;;;;;;1999.90;999.90;;;;;;;23.23;35.20;94982.13;5071210;28;20703;-62
2021/05/12 08:30:23;;;;;;;1999.90;999.90;;;;;;;23.48;36.50;94966.88;5071311;28;20204;-62
2021/05/12 08:32:51;;;;;;;1999.90;999.90;;;;;;;23.48;34.93;94966.13;5071103;28;20222;-63
2021/05/12 08:35:17;;;;;;;1999.90;999.90;;;;;;;23.24;36.12;94967.75;5071056;28;20195;-65
2021/05/12 08:37:44;;;;;;;1999.90;999.90;;;;;;;23.35;37.04;94959.72;5070858;28;20228;-64
2021/05/12 08:40:12;;;;;;;1999.90;999.90;;;;;;;23.49;35.67;94957.00;5070967;28;20200;-65
2021/05/12 08:42:40;;;;;;;1999.90;999.90;;;;;;;23.21;35.39;94954.50;5071264;28;20197;-63
2021/05/12 08:45:08;;;;;;;1999.90;999.90;;;;;;;23.37;36.33;94949.47;5071069;28;20336;-63
2021/05/12 08:47:37;;;;;;;1999.90;999.90;;;;;;;23.64;34.73;94952.38;5071248;28;20201;-63
2021/05/12 08:50:08;;;;;;;1999.90;999.90;;;;;;;23.71;35.52;94945.09;5071078;28;20192;-64
2021/05/12 08:52:36;;;;;;;1999.90;999.90;;;;;;;23.92;35.12;94942.28;5070764;28;20280;-63
2021/05/12 08:55:03;;;;;;;1999.90;999.90;;;;;;;24.10;35.06;94936.84;5070981;28;20206;-65
2021/05/12 08:57:30;;;;;;;1999.90;999.90;;;;;;;24.12;34.98;94936.44;5070567;28;20234;-64
2021/05/12 08:59:57;;;;;;;1999.90;999.90;;;;;;;23.87;34.98;94934.75;5070372;28;20257;-64
2021/05/12 09:02:24;;;;;;;1999.90;999.90;;;;;;;23.52;35.99;94940.31;5070766;28;20582;-63
2021/05/12 09:04:52;;;;;;;1999.90;999.90;;;;;;;23.70;37.02;94940.97;5070715;28;20204;-63
2021/05/12 09:07:19;;;;;;;1999.90;999.90;;;;;;;24.12;35.29;94931.13;5070597;28;20279;-63
2021/05/12 09:09:46;;;;;;;1999.90;999.90;;;;;;;24.15;36.11;94922.38;5070350;28;20891;-65
2021/05/12 09:12:14;;;;;;;1999.90;999.90;;;;;;;24.42;34.74;94916.06;5070658;28;20209;-63
2021/05/12 09:14:41;;;;;;;1999.90;999.90;;;;;;;24.43;34.95;94911.50;5070235;28;20241;-63
2021/05/12 09:17:08;;;;;;;1999.90;999.90;;;;;;;24.53;34.25;94910.63;5070243;28;20234;-64
2021/05/12 09:19:35;;;;;;;1999.90;999.90;;;;;;;24.60;35.64;94910.56;5070329;28;20203;-63
2021/05/12 09:22:04;;;;;;;1999.90;999.90;;;;;;;24.36;35.07;94907.00;5070288;28;20330;-64
2021/05/12 09:24:33;;;;;;;1999.90;999.90;;;;;;;24.44;34.72;94905.03;5070280;28;20192;-64
2021/05/12 09:27:02;;;;;;;1999.90;999.90;;;;;;;24.65;34.58;94904.81;5070366;28;20610;-64
2021/05/12 09:29:31;;;;;;;1999.90;999.90;;;;;;;24.73;36.67;94902.81;5070147;28;20287;-64
2021/05/12 09:32:09;;;;;;;1999.90;999.90;;;;;;;25.13;33.12;94899.28;5070017;28;20579;-64
2021/05/12 09:34:57;;;;;;;1999.90;999.90;;;;;;;25.22;34.55;94904.09;5070171;28;20313;-63
2021/05/12 09:37:29;;;;;;;1999.90;999.90;;;;;;;25.41;34.47;94892.03;5070121;28;20240;-64
2021/05/12 09:39:57;;;;;;;1999.90;999.90;;;;;;;25.33;33.60;94888.75;5070287;28;20197;-63
2021/05/12 09:42:25;;;;;;;1999.90;999.90;;;;;;;25.37;33.59;94897.41;5070462;28;20295;-63
2021/05/12 09:45:12;;;;;;;1999.90;999.90;;;;;;;25.40;34.49;94901.94;5070304;28;20744;-63
2021/05/12 09:47:39;;;;;;;1999.90;999.90;;;;;;;25.23;35.88;94894.97;5069942;28;20291;-63
2021/05/12 09:50:12;;;;;;;1999.90;999.90;;;;;;;25.40;34.90;94901.19;5070317;28;20191;-62
2021/05/12 09:52:39;;;;;;;1999.90;999.90;;;;;;;25.41;35.08;94894.69;5069924;28;20200;-63
2021/05/12 09:55:08;;;;;;;1999.90;999.90;;;;;;;25.49;33.55;94898.78;5069916;28;20199;-64
2021/05/12 09:57:35;;;;;;;1999.90;999.90;;;;;;;25.63;33.22;94893.25;5069791;28;20234;-63
2021/05/12 10:00:02;;;;;;;1999.90;999.90;;;;;;;25.62;34.63;94887.19;5070044;28;20192;-64
2021/05/12 10:02:45;;;;;;;1999.90;999.90;;;;;;;25.55;34.60;94887.31;5069850;28;20201;-65
2021/05/12 10:05:13;;;;;;;1999.90;999.90;;;;;;;25.57;34.20;94889.53;5070482;28;20204;-63
2021/05/12 10:07:50;;;;;;;1999.90;999.90;;;;;;;26.27;34.69;94881.53;5070071;28;20205;-64
2021/05/12 10:10:34;;;;;;;1999.90;999.90;;;;;;;26.68;33.80;94878.47;5069700;28;20254;-63
2021/05/12 10:13:01;;;;;;;1999.90;999.90;;;;;;;26.71;34.11;94874.97;5070096;28;20237;-65
2021/05/12 10:15:28;;;;;;;1999.90;999.90;;;;;;;26.86;33.37;94881.53;5069783;28;20204;-63
2021/05/12 10:17:55;;;;;;;1999.90;999.90;;;;;;;27.11;33.64;94878.34;5069705;28;20235;-64
2021/05/12 10:20:22;;;;;;;1999.90;999.90;;;;;;;27.32;32.76;94875.97;5069782;28;20223;-63
2021/05/12 10:22:52;;;;;;;1999.90;999.90;;;;;;;27.37;31.42;94870.13;5069677;28;20204;-64
2021/05/12 10:25:19;;;;;;;1999.90;999.90;;;;;;;27.47;31.23;94864.97;5069614;28;20208;-63
2021/05/12 10:27:49;;;;;;;1999.90;999.90;;;;;;;27.26;34.94;94866.19;5073583;28;20224;-62
2021/05/12 10:30:18;;;;;;;1999.90;999.90;;;;;;;27.34;34.38;94859.56;5073758;28;20243;-62
2021/05/12 10:32:50;;;;;;;1999.90;999.90;;;;;;;27.35;34.41;94859.13;5073276;28;20665;-63
2021/05/12 10:35:17;;;;;;;1999.90;999.90;;;;;;;27.02;34.20;94860.25;5073827;28;20563;-63
2021/05/12 10:37:46;;;;;;;1999.90;999.90;;;;;;;27.26;34.89;94853.63;5073222;28;20224;-63
2021/05/12 10:40:20;;;;;;;1999.90;999.90;;;;;;;27.41;32.14;94852.13;5073255;28;20211;-62
2021/05/12 10:43:06;;;;;;;1999.90;999.90;;;;;;;27.27;32.72;94852.44;5073865;28;20192;-63
2021/05/12 10:45:56;;;;;;;1999.90;999.90;;;;;;;26.92;33.96;94845.97;5073510;28;20199;-62
2021/05/12 10:48:31;;;;;;;1999.90;999.90;;;;;;;26.83;34.13;94842.34;5073241;28;20292;-62
2021/05/12 10:50:59;;;;;;;1999.90;999.90;;;;;;;26.84;34.18;94841.19;5073274;28;20234;-63
2021/05/12 10:53:28;;;;;;;1999.90;999.90;;;;;;;26.68;35.68;94838.47;5073121;28;20196;-62
2021/05/12 10:56:06;;;;;;;1999.90;999.90;;;;;;;26.58;34.93;94829.53;5073230;28;20196;-63
2021/05/12 10:58:38;;;;;;;1999.90;999.90;;;;;;;26.86;33.94;94830.84;5072957;28;20274;-63